Terminal Aerodrome Forecast
Issued by NWS

Home | Current Version | Previous Version | Text Only | Print | Product List | Glossary On
Versions: 1 2 3 4 5 6 7 8 9 10 11 12 13 14 15 16 17 18 19 20 21 22
657
FTUS44 KMAF 261127
TAFFST
TAF
KFST 261127Z 2612/2712 13012G19KT P6SM BKN060 BKN120
      TEMPO 2612/2615 VRB25G35KT 3SM TSRA BKN010CB=

USA.gov is the U.S. government's official web portal to all federal, state and local government web resources and services.